createdAt,value
2022-12-23T00:00:03.856Z,23.50
2022-12-23T00:01:03.845Z,23.50
2022-12-23T00:02:03.953Z,23.49
2022-12-23T00:03:03.987Z,23.49
2022-12-23T00:04:03.842Z,23.49
2022-12-23T00:05:03.779Z,23.51
2022-12-23T00:06:03.756Z,23.51
2022-12-23T00:07:03.749Z,23.50
2022-12-23T00:08:03.723Z,23.51
2022-12-23T00:09:03.728Z,23.51
2022-12-23T00:10:03.695Z,23.51
2022-12-23T00:11:03.690Z,23.50
2022-12-23T00:12:03.673Z,23.50
2022-12-23T00:13:03.649Z,23.49
2022-12-23T00:14:03.610Z,23.49
2022-12-23T00:15:03.613Z,23.48
2022-12-23T00:16:03.667Z,23.48
2022-12-23T00:17:09.267Z,23.49
2022-12-23T00:18:04.577Z,23.49
2022-12-23T00:19:03.562Z,23.48
2022-12-23T00:20:03.512Z,23.48
2022-12-23T00:21:08.579Z,23.48
2022-12-23T00:22:04.522Z,23.49
2022-12-23T00:23:03.474Z,23.49
2022-12-23T00:24:03.454Z,23.49
2022-12-23T00:25:03.427Z,23.49
2022-12-23T00:26:03.428Z,23.49
2022-12-23T00:27:03.401Z,23.50
2022-12-23T00:28:03.379Z,23.49
2022-12-23T00:29:03.375Z,23.48
2022-12-23T00:30:03.346Z,23.48
2022-12-23T00:31:03.337Z,23.49
2022-12-23T00:32:03.329Z,23.48
2022-12-23T00:33:03.356Z,23.48
2022-12-23T00:34:03.298Z,23.47
2022-12-23T00:35:03.272Z,23.47
2022-12-23T00:36:03.297Z,23.46
2022-12-23T00:37:03.230Z,23.47
2022-12-23T00:38:03.234Z,23.46
2022-12-23T00:39:03.919Z,23.45
2022-12-23T00:40:06.782Z,23.45
2022-12-23T00:41:03.177Z,23.45
2022-12-23T00:42:03.218Z,23.45
2022-12-23T00:43:03.160Z,23.45
2022-12-23T00:44:03.129Z,23.46
2022-12-23T00:45:03.125Z,23.45
2022-12-23T00:46:03.183Z,23.45
2022-12-23T00:47:03.126Z,23.46
2022-12-23T00:48:03.092Z,23.46
2022-12-23T00:49:03.073Z,23.47
2022-12-23T00:50:03.073Z,23.47
2022-12-23T00:51:03.050Z,23.47
2022-12-23T00:52:03.050Z,23.47
2022-12-23T00:53:03.069Z,23.46
2022-12-23T00:54:03.022Z,23.47
2022-12-23T00:55:03.011Z,23.47
2022-12-23T00:56:03.016Z,23.46
2022-12-23T00:57:03.011Z,23.46
2022-12-23T00:58:02.968Z,23.47
2022-12-23T00:59:02.959Z,23.47
2022-12-23T01:00:02.961Z,23.47
2022-12-23T01:01:02.986Z,23.46
2022-12-23T01:02:03.097Z,23.47
2022-12-23T01:03:03.017Z,23.46
2022-12-23T01:04:02.909Z,23.45
2022-12-23T01:05:02.925Z,23.44
2022-12-23T01:06:03.059Z,23.44
2022-12-23T01:07:02.866Z,23.44
2022-12-23T01:08:02.925Z,23.43
2022-12-23T01:09:02.865Z,23.44
2022-12-23T01:10:02.877Z,23.43
2022-12-23T01:11:02.844Z,23.42
2022-12-23T01:12:02.842Z,23.43
2022-12-23T01:13:02.822Z,23.43
2022-12-23T01:14:02.797Z,23.44
2022-12-23T01:15:02.780Z,23.44
2022-12-23T01:16:02.798Z,23.43
2022-12-23T01:17:02.835Z,23.44
2022-12-23T01:18:02.765Z,23.44
2022-12-23T01:19:02.727Z,23.45
2022-12-23T01:20:03.459Z,23.44
2022-12-23T01:21:03.469Z,23.45
2022-12-23T01:22:03.456Z,23.44
2022-12-23T01:23:02.963Z,23.44
2022-12-23T01:24:02.710Z,23.44
2022-12-23T01:25:02.729Z,23.44
2022-12-23T01:26:03.449Z,23.43
2022-12-23T01:27:03.441Z,23.43
2022-12-23T01:28:03.442Z,23.42
2022-12-23T01:29:02.667Z,23.43
2022-12-23T01:30:02.680Z,23.43
2022-12-23T01:31:02.637Z,23.42
2022-12-23T01:32:02.660Z,23.43
2022-12-23T01:33:02.578Z,23.44
2022-12-23T01:34:02.496Z,23.43
2022-12-23T01:35:02.543Z,23.44
2022-12-23T01:36:02.482Z,23.42
2022-12-23T01:37:02.465Z,23.43
2022-12-23T01:38:02.472Z,23.44
2022-12-23T01:39:02.465Z,23.43
2022-12-23T01:40:02.428Z,23.44
2022-12-23T01:41:02.470Z,23.44
2022-12-23T01:42:02.412Z,23.44
2022-12-23T01:43:02.376Z,23.43
2022-12-23T01:44:02.431Z,23.44
2022-12-23T01:45:02.386Z,23.43
2022-12-23T01:46:02.420Z,23.45
2022-12-23T01:47:02.348Z,23.45
2022-12-23T01:48:02.347Z,23.45
2022-12-23T01:49:02.319Z,23.44
2022-12-23T01:50:02.321Z,23.43
2022-12-23T01:51:02.302Z,23.43
2022-12-23T01:52:02.314Z,23.43
2022-12-23T01:53:07.415Z,23.43
2022-12-23T01:54:03.333Z,23.43
2022-12-23T01:55:02.284Z,23.43
2022-12-23T01:56:02.264Z,23.44
2022-12-23T01:57:02.257Z,23.43
2022-12-23T01:58:02.289Z,23.44
2022-12-23T01:59:02.244Z,23.44
2022-12-23T02:00:02.216Z,23.43
2022-12-23T02:01:02.277Z,23.42
2022-12-23T02:02:02.415Z,23.42
2022-12-23T02:03:02.317Z,23.43
2022-12-23T02:04:02.206Z,23.44
2022-12-23T02:05:02.169Z,23.43
2022-12-23T02:06:02.154Z,23.44
2022-12-23T02:07:02.139Z,23.43
2022-12-23T02:08:02.147Z,23.44
2022-12-23T02:09:02.117Z,23.44
2022-12-23T02:10:02.203Z,23.44
2022-12-23T02:11:02.084Z,23.44
2022-12-23T02:12:02.115Z,23.43
2022-12-23T02:13:02.053Z,23.44
2022-12-23T02:14:02.096Z,23.44
2022-12-23T02:15:02.064Z,23.44
2022-12-23T02:16:02.032Z,23.44
2022-12-23T02:17:02.138Z,23.42
2022-12-23T02:18:02.027Z,23.42
2022-12-23T02:19:02.029Z,23.42
2022-12-23T02:20:02.053Z,23.43
2022-12-23T02:21:02.120Z,23.43
2022-12-23T02:22:01.982Z,23.41
2022-12-23T02:23:02.015Z,23.41
2022-12-23T02:24:01.973Z,23.41
2022-12-23T02:25:01.929Z,23.40
2022-12-23T02:26:01.936Z,23.41
2022-12-23T02:27:01.908Z,23.41
2022-12-23T02:28:01.903Z,23.41
2022-12-23T02:29:01.888Z,23.40
2022-12-23T02:30:01.899Z,23.40
2022-12-23T02:31:01.953Z,23.40
2022-12-23T02:32:01.862Z,23.39
2022-12-23T02:33:01.830Z,23.39
2022-12-23T02:34:01.827Z,23.38
2022-12-23T02:35:01.819Z,23.39
2022-12-23T02:36:01.812Z,23.39
2022-12-23T02:37:01.789Z,23.40
2022-12-23T02:38:01.773Z,23.40
2022-12-23T02:39:01.783Z,23.40
2022-12-23T02:40:01.752Z,23.41
2022-12-23T02:41:01.747Z,23.40
2022-12-23T02:42:01.727Z,23.40
2022-12-23T02:43:01.738Z,23.39
2022-12-23T02:44:01.732Z,23.40
2022-12-23T02:45:01.707Z,23.39
2022-12-23T02:46:01.826Z,23.39
2022-12-23T02:47:01.693Z,23.39
2022-12-23T02:48:01.672Z,23.41
2022-12-23T02:49:01.626Z,23.41
2022-12-23T02:50:01.697Z,23.41
2022-12-23T02:51:01.607Z,23.40
2022-12-23T02:52:01.623Z,23.40
2022-12-23T02:53:01.598Z,23.40
2022-12-23T02:54:01.606Z,23.41
2022-12-23T02:55:01.557Z,23.41
2022-12-23T02:56:02.485Z,23.41
2022-12-23T02:57:01.572Z,23.42
2022-12-23T02:58:01.526Z,23.42
2022-12-23T02:59:01.521Z,23.41
2022-12-23T03:00:01.517Z,23.40
2022-12-23T03:01:01.473Z,23.41
2022-12-23T03:02:01.651Z,23.41
2022-12-23T03:03:01.550Z,23.41
2022-12-23T03:04:01.611Z,23.41
2022-12-23T03:05:01.473Z,23.41
2022-12-23T03:06:01.425Z,23.40
2022-12-23T03:07:07.335Z,23.40
2022-12-23T03:08:02.493Z,23.39
2022-12-23T03:09:01.476Z,23.39
2022-12-23T03:10:01.438Z,23.38
2022-12-23T03:11:01.431Z,23.39
2022-12-23T03:12:01.397Z,23.39
2022-12-23T03:13:01.362Z,23.39
2022-12-23T03:14:01.351Z,23.40
2022-12-23T03:15:01.327Z,23.40
2022-12-23T03:16:01.356Z,23.38
2022-12-23T03:17:01.315Z,23.38
2022-12-23T03:18:01.292Z,23.38
2022-12-23T03:19:01.281Z,23.38
2022-12-23T03:20:01.272Z,23.38
2022-12-23T03:21:01.253Z,23.37
2022-12-23T03:22:01.237Z,23.38
2022-12-23T03:23:01.239Z,23.40
2022-12-23T03:24:01.209Z,23.40
2022-12-23T03:25:01.199Z,23.39
2022-12-23T03:26:01.214Z,23.39
2022-12-23T03:27:01.193Z,23.38
2022-12-23T03:28:01.233Z,23.37
2022-12-23T03:29:01.161Z,23.37
2022-12-23T03:30:01.203Z,23.38
2022-12-23T03:31:01.193Z,23.38
2022-12-23T03:32:01.146Z,23.38
2022-12-23T03:33:01.156Z,23.39
2022-12-23T03:34:01.123Z,23.39
2022-12-23T03:35:01.125Z,23.39
2022-12-23T03:36:01.127Z,23.39
2022-12-23T03:37:01.095Z,23.39
2022-12-23T03:38:01.088Z,23.39
2022-12-23T03:39:01.073Z,23.38
2022-12-23T03:40:01.189Z,23.39
2022-12-23T03:41:01.038Z,23.39
2022-12-23T03:42:01.030Z,23.39
2022-12-23T03:43:01.037Z,23.39
2022-12-23T03:44:00.980Z,23.38
2022-12-23T03:46:02.046Z,23.36
2022-12-23T03:47:00.980Z,23.37
2022-12-23T03:48:00.940Z,23.36
2022-12-23T03:49:00.930Z,23.37
2022-12-23T03:50:00.896Z,23.37
2022-12-23T03:51:00.882Z,23.37
2022-12-23T03:52:00.883Z,23.37
2022-12-23T03:53:00.870Z,23.37
2022-12-23T03:54:00.843Z,23.36
2022-12-23T03:55:00.868Z,23.36
2022-12-23T03:56:00.833Z,23.35
2022-12-23T03:57:00.839Z,23.35
2022-12-23T03:58:00.824Z,23.36
2022-12-23T03:59:00.789Z,23.37
2022-12-23T04:00:00.785Z,23.35
2022-12-23T04:01:00.755Z,23.34
2022-12-23T04:02:00.791Z,23.35
2022-12-23T04:03:00.896Z,23.34
2022-12-23T04:04:00.745Z,23.34
2022-12-23T04:05:00.702Z,23.34
2022-12-23T04:06:00.691Z,23.35
2022-12-23T04:07:00.658Z,23.35
2022-12-23T04:08:00.633Z,23.34
2022-12-23T04:09:00.607Z,23.34
2022-12-23T04:10:00.670Z,23.35
2022-12-23T04:11:00.571Z,23.35
2022-12-23T04:12:00.562Z,23.34
2022-12-23T04:13:00.542Z,23.35
2022-12-23T04:14:00.510Z,23.34
2022-12-23T04:15:00.499Z,23.34
2022-12-23T04:16:00.510Z,23.34
2022-12-23T04:17:00.452Z,23.34
2022-12-23T04:18:00.448Z,23.34
2022-12-23T04:19:00.414Z,23.34
2022-12-23T04:20:00.433Z,23.33
2022-12-23T04:21:00.395Z,23.33
2022-12-23T04:22:00.368Z,23.33
2022-12-23T04:23:00.344Z,23.33
2022-12-23T04:24:00.349Z,23.33
2022-12-23T04:25:00.316Z,23.34
2022-12-23T04:26:00.547Z,23.34
2022-12-23T04:27:00.270Z,23.34
2022-12-23T04:28:00.232Z,23.33
2022-12-23T04:29:00.223Z,23.33
2022-12-23T04:30:00.257Z,23.33
2022-12-23T04:31:00.252Z,23.33
2022-12-23T04:32:00.159Z,23.34
2022-12-23T04:33:00.159Z,23.35
2022-12-23T04:34:00.115Z,23.34
2022-12-23T04:35:00.181Z,23.33
2022-12-23T04:36:00.136Z,23.32
2022-12-23T04:37:00.064Z,23.32
2022-12-23T04:38:00.080Z,23.31
2022-12-23T04:39:00.023Z,23.32
2022-12-23T04:40:00.042Z,23.32
2022-12-23T04:41:00.028Z,23.32
2022-12-23T04:41:59.973Z,23.33
2022-12-23T04:42:59.942Z,23.33
2022-12-23T04:43:59.931Z,23.35
2022-12-23T04:44:59.923Z,23.35
2022-12-23T04:45:59.941Z,23.35
2022-12-23T04:46:59.892Z,23.33
2022-12-23T04:47:59.858Z,23.33
2022-12-23T04:48:59.834Z,23.33
2022-12-23T04:49:59.805Z,23.33
2022-12-23T04:50:59.805Z,23.33
2022-12-23T04:51:59.783Z,23.33
2022-12-23T04:52:59.753Z,23.33
2022-12-23T04:53:59.763Z,23.32
2022-12-23T04:54:59.745Z,23.33
2022-12-23T04:55:59.748Z,23.33
2022-12-23T04:56:59.710Z,23.34
2022-12-23T04:57:59.718Z,23.34
2022-12-23T04:58:59.692Z,23.34
2022-12-23T04:59:59.729Z,23.34
2022-12-23T05:00:59.756Z,23.33
2022-12-23T05:01:59.878Z,23.33
2022-12-23T05:02:59.749Z,23.33
2022-12-23T05:03:59.640Z,23.33
2022-12-23T05:04:59.599Z,23.33
2022-12-23T05:05:59.594Z,23.34
2022-12-23T05:06:59.557Z,23.33
2022-12-23T05:07:59.541Z,23.32
2022-12-23T05:08:59.538Z,23.32
2022-12-23T05:09:59.527Z,23.33
2022-12-23T05:10:59.512Z,23.32
2022-12-23T05:11:59.492Z,23.32
2022-12-23T05:12:59.464Z,23.32
2022-12-23T05:13:59.448Z,23.32
2022-12-23T05:14:59.437Z,23.33
2022-12-23T05:15:59.450Z,23.33
2022-12-23T05:17:05.229Z,23.32
2022-12-23T05:18:00.375Z,23.31
2022-12-23T05:18:59.379Z,23.32
2022-12-23T05:19:59.353Z,23.31
2022-12-23T05:20:59.392Z,23.30
2022-12-23T05:21:59.306Z,23.30
2022-12-23T05:22:59.292Z,23.30
2022-12-23T05:23:59.288Z,23.30
2022-12-23T05:24:59.259Z,23.30
2022-12-23T05:25:59.252Z,23.30
2022-12-23T05:27:00.329Z,23.30
2022-12-23T05:27:59.210Z,23.29
2022-12-23T05:28:59.198Z,23.30
2022-12-23T05:29:59.183Z,23.30
2022-12-23T05:30:59.201Z,23.30
2022-12-23T05:31:59.304Z,23.30
2022-12-23T05:32:59.193Z,23.29
2022-12-23T05:34:05.710Z,23.28
2022-12-23T05:35:00.139Z,23.27
2022-12-23T05:35:59.163Z,23.28
2022-12-23T05:36:59.086Z,23.28
2022-12-23T05:38:00.034Z,23.28
2022-12-23T05:38:59.093Z,23.28
2022-12-23T05:39:59.168Z,23.28
2022-12-23T05:40:59.545Z,23.29
2022-12-23T05:41:59.114Z,23.29
2022-12-23T05:42:59.546Z,23.29
2022-12-23T05:43:59.557Z,23.30
2022-12-23T05:44:59.539Z,23.28
2022-12-23T05:45:59.166Z,23.29
2022-12-23T05:46:59.120Z,23.29
2022-12-23T05:47:59.080Z,23.29
2022-12-23T05:48:59.122Z,23.28
2022-12-23T05:49:59.137Z,23.29
2022-12-23T05:50:59.030Z,23.30
2022-12-23T05:51:58.989Z,23.30
2022-12-23T05:52:58.865Z,23.30
2022-12-23T05:53:58.865Z,23.30
2022-12-23T05:55:00.580Z,23.30
2022-12-23T05:55:58.867Z,23.30
2022-12-23T05:56:58.854Z,23.30
2022-12-23T05:57:58.841Z,23.31
2022-12-23T05:58:58.816Z,23.31
2022-12-23T05:59:58.812Z,23.30
2022-12-23T06:00:58.808Z,23.29
2022-12-23T06:01:59.004Z,23.30
2022-12-23T06:02:58.937Z,23.29
2022-12-23T06:03:58.877Z,23.28
2022-12-23T06:04:58.730Z,23.29
2022-12-23T06:05:58.714Z,23.30
2022-12-23T06:06:58.703Z,23.31
2022-12-23T06:07:58.695Z,23.31
2022-12-23T06:08:59.952Z,23.31
2022-12-23T06:09:58.671Z,23.30
2022-12-23T06:10:58.660Z,23.31
2022-12-23T06:11:58.639Z,23.32
2022-12-23T06:12:58.628Z,23.31
2022-12-23T06:13:58.602Z,23.31
2022-12-23T06:14:58.607Z,23.30
2022-12-23T06:15:58.575Z,23.29
2022-12-23T06:16:58.683Z,23.29
2022-12-23T06:17:58.543Z,23.28
2022-12-23T06:18:58.513Z,23.28
2022-12-23T06:19:58.495Z,23.28
2022-12-23T06:20:58.485Z,23.29
2022-12-23T06:21:58.486Z,23.28
2022-12-23T06:22:58.471Z,23.29
2022-12-23T06:23:58.434Z,23.29
2022-12-23T06:24:58.458Z,23.30
2022-12-23T06:25:58.382Z,23.30
2022-12-23T06:26:58.396Z,23.29
2022-12-23T06:27:58.355Z,23.29
2022-12-23T06:28:58.357Z,23.28
2022-12-23T06:29:58.327Z,23.29
2022-12-23T06:30:58.328Z,23.29
2022-12-23T06:31:58.362Z,23.28
2022-12-23T06:32:58.292Z,23.27
2022-12-23T06:33:58.263Z,23.26
2022-12-23T06:34:58.254Z,23.22
2022-12-23T06:35:58.239Z,23.17
2022-12-23T06:36:58.248Z,23.09
2022-12-23T06:37:58.224Z,22.97
2022-12-23T06:38:58.221Z,22.88
2022-12-23T06:39:58.220Z,22.76
2022-12-23T06:40:58.227Z,22.63
2022-12-23T06:41:58.194Z,22.18
2022-12-23T06:42:58.195Z,21.80
2022-12-23T06:43:58.227Z,21.71
2022-12-23T06:44:58.201Z,21.58
2022-12-23T06:45:58.256Z,21.45
2022-12-23T06:46:58.195Z,21.32
2022-12-23T06:47:58.213Z,21.18
2022-12-23T06:48:58.207Z,21.11
2022-12-23T06:49:58.206Z,21.05
2022-12-23T06:50:58.209Z,21.04
2022-12-23T06:51:58.315Z,20.99
2022-12-23T06:52:58.234Z,20.99
2022-12-23T06:53:58.241Z,20.93
2022-12-23T06:54:58.369Z,20.86
2022-12-23T06:55:58.281Z,20.78
2022-12-23T06:56:58.331Z,20.78
2022-12-23T06:57:58.367Z,20.75
2022-12-23T06:58:58.325Z,20.73
2022-12-23T06:59:58.334Z,20.64
2022-12-23T07:00:58.347Z,20.53
2022-12-23T07:01:58.570Z,20.44
2022-12-23T07:02:58.492Z,20.36
2022-12-23T07:03:58.597Z,20.31
2022-12-23T07:04:58.433Z,20.27
2022-12-23T07:05:58.536Z,20.24
2022-12-23T07:06:58.473Z,20.18
2022-12-23T07:07:58.536Z,20.10
2022-12-23T07:08:58.532Z,20.04
2022-12-23T07:09:58.538Z,20.01
2022-12-23T07:10:58.590Z,19.96
2022-12-23T07:11:58.574Z,19.91
2022-12-23T07:12:58.613Z,19.87
2022-12-23T07:13:58.621Z,19.84
2022-12-23T07:14:59.604Z,19.84
2022-12-23T07:15:58.695Z,19.91
2022-12-23T07:16:58.700Z,20.03
2022-12-23T07:17:58.769Z,20.16
2022-12-23T07:18:58.796Z,20.29
2022-12-23T07:19:58.720Z,20.42
2022-12-23T07:20:58.766Z,20.56
2022-12-23T07:21:58.743Z,20.68
2022-12-23T07:22:58.762Z,20.79
2022-12-23T07:23:58.901Z,20.89
2022-12-23T07:24:58.770Z,21.00
2022-12-23T07:25:58.776Z,21.09
2022-12-23T07:26:58.811Z,21.18
2022-12-23T07:27:58.805Z,21.26
2022-12-23T07:28:58.822Z,21.35
2022-12-23T07:29:58.838Z,21.42
2022-12-23T07:30:58.895Z,21.48
2022-12-23T07:31:59.037Z,21.54
2022-12-23T07:32:58.855Z,21.61
2022-12-23T07:33:58.853Z,21.65
2022-12-23T07:34:58.858Z,21.71
2022-12-23T07:35:58.968Z,21.77
2022-12-23T07:36:58.848Z,21.80
2022-12-23T07:37:58.928Z,21.84
2022-12-23T07:38:58.893Z,21.89
2022-12-23T07:40:03.531Z,21.93
2022-12-23T07:40:59.867Z,21.97
2022-12-23T07:42:25.051Z,22.04
2022-12-23T07:42:59.936Z,22.10
2022-12-23T07:43:58.860Z,22.15
2022-12-23T07:44:58.861Z,22.19
2022-12-23T07:46:00.761Z,22.23
2022-12-23T07:46:58.864Z,22.25
2022-12-23T07:47:58.879Z,22.27
2022-12-23T07:48:58.873Z,22.29
2022-12-23T07:49:58.850Z,22.33
2022-12-23T07:50:58.835Z,22.35
2022-12-23T07:51:58.870Z,22.35
2022-12-23T07:52:58.834Z,22.35
2022-12-23T07:53:58.875Z,22.36
2022-12-23T07:54:58.843Z,22.36
2022-12-23T07:55:58.855Z,22.37
2022-12-23T07:56:58.856Z,22.37
2022-12-23T07:57:58.824Z,22.37
2022-12-23T07:58:58.847Z,22.37
2022-12-23T07:59:58.864Z,22.37
2022-12-23T08:00:58.883Z,22.38
2022-12-23T08:01:58.960Z,22.38
2022-12-23T08:02:58.983Z,22.40
2022-12-23T08:03:58.830Z,22.40
2022-12-23T08:04:58.862Z,22.40
2022-12-23T08:05:58.844Z,22.41
2022-12-23T08:06:58.840Z,22.41
2022-12-23T08:07:58.887Z,22.42
2022-12-23T08:08:58.837Z,22.42
2022-12-23T08:09:58.819Z,22.43
2022-12-23T08:10:59.587Z,22.45
2022-12-23T08:11:59.612Z,22.45
2022-12-23T08:12:58.828Z,22.46
2022-12-23T08:13:58.810Z,22.47
2022-12-23T08:14:58.817Z,22.48
2022-12-23T08:15:58.811Z,22.49
2022-12-23T08:16:58.845Z,22.50
2022-12-23T08:17:58.800Z,22.51
2022-12-23T08:18:59.150Z,22.52
2022-12-23T08:19:59.584Z,22.56
2022-12-23T08:20:58.791Z,22.57
2022-12-23T08:21:58.787Z,22.58
2022-12-23T08:22:58.778Z,22.59
2022-12-23T08:23:58.788Z,22.61
2022-12-23T08:24:58.768Z,22.62
2022-12-23T08:25:58.790Z,22.64
2022-12-23T08:26:58.753Z,22.64
2022-12-23T08:27:58.756Z,22.66
2022-12-23T08:28:58.754Z,22.67
2022-12-23T08:29:58.790Z,22.68
2022-12-23T08:30:58.883Z,22.68
2022-12-23T08:31:58.771Z,22.70
2022-12-23T08:32:58.753Z,22.71
2022-12-23T08:33:58.760Z,22.72
2022-12-23T08:34:58.762Z,22.72
2022-12-23T08:35:58.763Z,22.73
2022-12-23T08:36:58.753Z,22.74
2022-12-23T08:37:58.746Z,22.75
2022-12-23T08:38:58.764Z,22.76
2022-12-23T08:39:58.813Z,22.76
2022-12-23T08:40:58.753Z,22.78
2022-12-23T08:41:58.741Z,22.78
2022-12-23T08:42:58.753Z,22.79
2022-12-23T08:43:58.774Z,22.76
2022-12-23T08:44:58.805Z,22.77
2022-12-23T08:45:58.789Z,22.81
2022-12-23T08:46:58.799Z,22.85
2022-12-23T08:47:58.931Z,22.89
2022-12-23T08:48:58.753Z,22.95
2022-12-23T08:49:58.748Z,22.99
2022-12-23T08:50:58.804Z,23.03
2022-12-23T08:51:58.733Z,23.09
2022-12-23T08:52:58.730Z,23.15
2022-12-23T08:54:01.059Z,23.20
2022-12-23T08:54:58.759Z,23.25
2022-12-23T08:55:58.684Z,23.30
2022-12-23T08:56:58.667Z,23.34
2022-12-23T08:57:58.668Z,23.37
2022-12-23T08:58:58.685Z,23.40
2022-12-23T08:59:58.699Z,23.44
2022-12-23T09:00:58.725Z,23.48
2022-12-23T09:01:58.773Z,23.51
2022-12-23T09:25:58.196Z,23.87
2022-12-23T09:34:00.636Z,23.79
2022-12-23T10:07:57.565Z,23.77
2022-12-23T13:07:53.909Z,23.89
2022-12-23T13:08:53.850Z,23.89
2022-12-23T13:09:53.799Z,23.89
2022-12-23T13:10:53.791Z,23.88
2022-12-23T13:11:53.757Z,23.89
2022-12-23T13:12:53.740Z,23.89
2022-12-23T13:13:53.706Z,23.88
2022-12-23T13:14:53.678Z,23.88
2022-12-23T13:15:53.671Z,23.88
2022-12-23T13:16:53.747Z,23.86
2022-12-23T13:17:53.635Z,23.87
2022-12-23T13:18:53.586Z,23.86
2022-12-23T13:19:53.583Z,23.87
2022-12-23T13:20:53.542Z,23.87
2022-12-23T13:21:53.509Z,23.87
2022-12-23T13:22:53.492Z,23.87
2022-12-23T13:23:53.474Z,23.86
2022-12-23T13:24:53.444Z,23.85
2022-12-23T13:25:53.462Z,23.84
2022-12-23T13:26:53.403Z,23.84
2022-12-23T13:27:53.521Z,23.85
2022-12-23T13:28:53.349Z,23.84
2022-12-23T13:29:57.958Z,23.83
2022-12-23T13:30:55.263Z,23.81
2022-12-23T13:31:53.308Z,23.81
2022-12-23T13:32:53.313Z,23.80
2022-12-23T13:33:54.317Z,23.80
2022-12-23T13:34:53.290Z,23.79
2022-12-23T13:35:53.802Z,23.79
2022-12-23T13:36:53.261Z,23.80
2022-12-23T13:37:53.166Z,23.81
2022-12-23T13:38:53.221Z,23.81
2022-12-23T13:39:53.126Z,23.81
2022-12-23T13:40:53.123Z,23.80
2022-12-23T13:41:53.095Z,23.81
2022-12-23T13:42:53.056Z,23.80
2022-12-23T13:43:53.076Z,23.80
2022-12-23T13:44:53.028Z,23.79
2022-12-23T13:45:53.050Z,23.78
2022-12-23T13:46:52.984Z,23.78
2022-12-23T13:47:52.995Z,23.78
2022-12-23T13:48:53.008Z,23.78
2022-12-23T13:49:52.946Z,23.79
2022-12-23T13:50:52.921Z,23.79
2022-12-23T13:51:53.756Z,23.79
2022-12-23T13:52:52.906Z,23.79
2022-12-23T13:53:52.915Z,23.78
2022-12-23T13:54:52.838Z,23.78
2022-12-23T13:55:52.810Z,23.77
2022-12-23T13:56:52.786Z,23.76
2022-12-23T13:57:52.785Z,23.77
2022-12-23T13:58:52.755Z,23.78
2022-12-23T13:59:52.724Z,23.77
2022-12-23T14:00:52.732Z,23.76
2022-12-23T14:01:52.902Z,23.76
2022-12-23T14:02:52.777Z,23.76
2022-12-23T14:03:52.709Z,23.76
2022-12-23T14:04:52.679Z,23.77
2022-12-23T14:05:52.620Z,23.77
2022-12-23T14:06:52.598Z,23.77
2022-12-23T14:07:52.563Z,23.75
2022-12-23T14:08:52.618Z,23.76
2022-12-23T14:09:52.579Z,23.76
2022-12-23T14:10:52.522Z,23.76
2022-12-23T14:11:52.486Z,23.75
2022-12-23T14:12:52.469Z,23.75
2022-12-23T14:13:52.500Z,23.75
2022-12-23T14:14:52.434Z,23.74
2022-12-23T14:15:52.508Z,23.73
2022-12-23T14:16:53.254Z,23.73
2022-12-23T14:17:52.377Z,23.74
2022-12-23T14:18:52.365Z,23.75
2022-12-23T14:19:52.352Z,23.75
2022-12-23T14:20:52.304Z,23.75
2022-12-23T14:21:52.331Z,23.74
2022-12-23T14:22:52.294Z,23.73
2022-12-23T14:23:52.248Z,23.72
2022-12-23T14:24:52.233Z,23.72
2022-12-23T14:25:52.763Z,23.71
2022-12-23T14:26:52.212Z,23.72
2022-12-23T14:27:52.208Z,23.73
2022-12-23T14:28:52.150Z,23.74
2022-12-23T14:29:52.125Z,23.73
2022-12-23T14:30:52.161Z,23.71
2022-12-23T14:31:52.107Z,23.70
2022-12-23T14:32:52.121Z,23.70
2022-12-23T14:33:52.065Z,23.70
2022-12-23T14:34:52.781Z,23.70
2022-12-23T14:35:52.031Z,23.68
2022-12-23T14:36:52.094Z,23.68
2022-12-23T14:37:52.000Z,23.68
2022-12-23T14:38:51.992Z,23.69
2022-12-23T14:39:51.974Z,23.69
2022-12-23T14:40:51.928Z,23.69
2022-12-23T14:41:51.922Z,23.68
2022-12-23T14:42:51.894Z,23.67
2022-12-23T14:43:51.896Z,23.68
2022-12-23T14:44:51.875Z,23.67
2022-12-23T14:45:51.857Z,23.66
2022-12-23T14:46:51.896Z,23.66
2022-12-23T14:47:52.818Z,23.67
2022-12-23T14:49:04.487Z,23.67
2022-12-23T14:49:52.793Z,23.65
2022-12-23T14:50:51.765Z,23.65
2022-12-23T14:51:51.772Z,23.65
2022-12-23T14:52:51.737Z,23.65
2022-12-23T14:53:51.799Z,23.65
2022-12-23T14:55:27.916Z,23.64
2022-12-23T14:55:52.697Z,23.64
2022-12-23T14:56:51.678Z,23.63
2022-12-23T14:57:51.647Z,23.62
2022-12-23T14:58:51.667Z,23.62
2022-12-23T14:59:51.631Z,23.62
2022-12-23T15:00:51.625Z,23.61
2022-12-23T15:01:51.644Z,23.61
2022-12-23T15:02:51.610Z,23.61
2022-12-23T15:03:57.561Z,23.59
2022-12-23T15:04:52.587Z,23.58
2022-12-23T15:05:51.539Z,23.57
2022-12-23T15:06:51.569Z,23.57
2022-12-23T15:07:51.525Z,23.58
2022-12-23T15:08:51.574Z,23.58
2022-12-23T15:09:54.546Z,23.58
2022-12-23T15:10:52.489Z,23.57
2022-12-23T15:11:51.433Z,23.57
2022-12-23T15:12:51.423Z,23.57
2022-12-23T15:13:51.468Z,23.57
2022-12-23T15:14:51.398Z,23.56
2022-12-23T15:15:54.683Z,23.56
2022-12-23T15:16:52.442Z,23.54
2022-12-23T15:17:51.344Z,23.55
2022-12-23T15:18:51.354Z,23.54
2022-12-23T15:19:51.305Z,23.54
2022-12-23T15:20:51.313Z,23.53
2022-12-23T15:22:51.274Z,23.53
2022-12-23T15:23:51.759Z,23.54
2022-12-23T15:24:51.217Z,23.53
2022-12-23T15:25:51.225Z,23.53
2022-12-23T15:27:24.567Z,23.53
2022-12-23T15:27:57.312Z,23.51
2022-12-23T15:28:52.222Z,23.50
2022-12-23T15:29:51.191Z,23.51
2022-12-23T15:30:51.203Z,23.51
2022-12-23T15:31:51.197Z,23.50
2022-12-23T15:32:51.105Z,23.50
2022-12-23T15:34:03.022Z,23.49
2022-12-23T15:34:52.084Z,23.49
2022-12-23T15:35:51.070Z,23.48
2022-12-23T15:36:51.069Z,23.49
2022-12-23T15:37:51.075Z,23.49
2022-12-23T15:38:51.025Z,23.48
2022-12-23T15:39:57.871Z,23.49
2022-12-23T15:40:51.990Z,23.48
2022-12-23T15:41:51.015Z,23.49
2022-12-23T15:42:50.980Z,23.49
2022-12-23T15:43:50.948Z,23.49
2022-12-23T15:44:50.941Z,23.49
2022-12-23T15:45:50.947Z,23.49
2022-12-23T15:46:51.037Z,23.50
2022-12-23T15:47:50.920Z,23.48
2022-12-23T15:48:50.915Z,23.49
2022-12-23T15:49:50.927Z,23.49
2022-12-23T15:50:50.889Z,23.48
2022-12-23T15:52:08.787Z,23.49
2022-12-23T15:52:51.861Z,23.48
2022-12-23T15:53:50.875Z,23.47
2022-12-23T15:54:51.818Z,23.49
2022-12-23T15:55:50.827Z,23.49
2022-12-23T15:56:50.840Z,23.49
2022-12-23T15:57:51.000Z,23.49
2022-12-23T15:58:50.831Z,23.49
2022-12-23T15:59:50.756Z,23.48
2022-12-23T16:00:50.742Z,23.48
2022-12-23T16:01:51.375Z,23.48
2022-12-23T16:03:11.884Z,23.48
2022-12-23T16:03:51.803Z,23.47
2022-12-23T16:04:50.698Z,23.46
2022-12-23T16:05:50.625Z,23.46
2022-12-23T16:06:50.623Z,23.45
2022-12-23T16:07:50.589Z,23.44
2022-12-23T16:08:50.565Z,23.44
2022-12-23T16:09:50.584Z,23.44
2022-12-23T16:10:50.514Z,23.43
2022-12-23T16:11:50.574Z,23.43
2022-12-23T16:12:50.477Z,23.43
2022-12-23T16:13:56.025Z,23.44
2022-12-23T16:15:50.504Z,23.45
2022-12-23T16:16:50.531Z,23.45
2022-12-23T16:17:50.389Z,23.45
2022-12-23T16:18:50.399Z,23.45
2022-12-23T16:19:50.374Z,23.44
2022-12-23T16:20:50.300Z,23.44
2022-12-23T16:21:50.277Z,23.44
2022-12-23T16:22:50.264Z,23.44
2022-12-23T16:23:50.225Z,23.44
2022-12-23T16:24:50.267Z,23.44
2022-12-23T16:25:50.978Z,23.43
2022-12-23T16:26:50.185Z,23.42
2022-12-23T16:27:50.141Z,23.43
2022-12-23T16:28:50.175Z,23.44
2022-12-23T16:50:50.289Z,23.40
2022-12-23T17:00:50.318Z,23.38
2022-12-23T17:04:50.311Z,23.37
2022-12-23T22:55:42.948Z,23.18
2022-12-23T22:56:42.908Z,23.17
2022-12-23T22:57:42.926Z,23.16
2022-12-23T22:58:42.893Z,23.16
2022-12-23T22:59:42.880Z,23.16
2022-12-23T23:00:42.856Z,23.16
2022-12-23T23:01:42.863Z,23.15
2022-12-23T23:02:42.816Z,23.16
2022-12-23T23:03:42.828Z,23.16
2022-12-23T23:04:42.794Z,23.16
2022-12-23T23:05:42.830Z,23.16
2022-12-23T23:06:42.794Z,23.15
2022-12-23T23:07:42.809Z,23.16
2022-12-23T23:08:42.855Z,23.16
2022-12-23T23:09:42.803Z,23.16
2022-12-23T23:10:42.753Z,23.16
2022-12-23T23:11:42.728Z,23.16
2022-12-23T23:12:42.722Z,23.15
2022-12-23T23:13:43.792Z,23.15
2022-12-23T23:14:42.705Z,23.14
2022-12-23T23:15:42.677Z,23.14
2022-12-23T23:16:42.737Z,23.15
2022-12-23T23:17:42.687Z,23.15
2022-12-23T23:18:42.722Z,23.16
2022-12-23T23:19:42.717Z,23.15